Time;durP1;ratioP1;P1;durP2;ratioP2;P2;SDS_P1;SDS_P2;PMS_P1;PMS_P2;Temp;Humidity;BMP_temperature;BMP_pressure;BME280_temperature;BME280_humidity;BME280_pressure;Samples;Min_cycle;Max_cycle;Signal;HPM_P1;HPM_P2
2023/01/21 00:01:12;;;;;;;28.88;17.27;;;;;;;4.44;60.13;102434.22;5038749;28;20133;-64
2023/01/21 00:03:40;;;;;;;28.92;16.80;;;;;;;4.42;60.79;102444.19;5042785;28;20049;-64
2023/01/21 00:06:08;;;;;;;28.10;16.98;;;;;;;4.40;60.48;102446.13;5040264;28;20049;-64
2023/01/21 00:08:36;;;;;;;26.92;18.08;;;;;;;4.41;60.28;102453.97;5041803;28;20051;-64
2023/01/21 00:11:05;;;;;;;25.90;16.67;;;;;;;4.39;60.65;102452.44;5041386;28;20095;-65
2023/01/21 00:13:33;;;;;;;28.02;17.35;;;;;;;4.39;60.09;102452.44;5042897;28;20068;-64
2023/01/21 00:16:02;;;;;;;27.73;16.30;;;;;;;4.40;60.88;102462.94;5041863;28;20073;-64
2023/01/21 00:18:31;;;;;;;32.08;18.13;;;;;;;4.38;60.30;102456.94;5037970;28;20053;-64
2023/01/21 00:20:59;;;;;;;25.48;15.43;;;;;;;4.37;60.17;102463.22;5055151;28;20075;-65
2023/01/21 00:23:27;;;;;;;27.23;16.92;;;;;;;4.36;60.19;102463.38;5045272;28;20048;-64
2023/01/21 00:25:57;;;;;;;27.80;17.15;;;;;;;4.35;60.08;102473.19;5036689;28;20113;-64
2023/01/21 00:28:28;;;;;;;33.55;17.63;;;;;;;4.34;60.38;102482.16;5047608;28;20049;-64
2023/01/21 00:30:57;;;;;;;28.58;17.60;;;;;;;4.34;60.64;102482.16;5043643;28;20556;-64
2023/01/21 00:33:28;;;;;;;31.58;18.55;;;;;;;4.34;60.41;102476.81;5043056;28;20053;-64
2023/01/21 00:36:00;;;;;;;30.60;17.73;;;;;;;4.32;60.73;102484.09;5043802;28;20085;-64
2023/01/21 00:38:28;;;;;;;31.88;17.60;;;;;;;4.35;61.01;102496.28;5044912;28;20109;-64
2023/01/21 00:41:00;;;;;;;29.33;16.55;;;;;;;4.31;60.87;102486.91;5044384;28;20041;-64
2023/01/21 00:43:28;;;;;;;30.05;18.08;;;;;;;4.35;60.78;102491.81;5044811;28;20497;-64
2023/01/21 00:45:56;;;;;;;29.02;18.00;;;;;;;4.34;61.07;102498.13;5038198;28;20136;-64
2023/01/21 00:48:24;;;;;;;29.70;18.35;;;;;;;4.30;60.71;102491.41;5044712;28;20041;-65
2023/01/21 00:50:54;;;;;;;32.00;18.42;;;;;;;4.34;60.20;102508.75;5047313;28;20045;-64
2023/01/21 00:53:23;;;;;;;29.98;16.75;;;;;;;4.34;59.97;102507.91;5042676;28;20393;-64
2023/01/21 00:55:51;;;;;;;30.98;17.90;;;;;;;4.33;60.05;102503.59;5049244;28;20132;-64
2023/01/21 00:58:19;;;;;;;30.60;18.45;;;;;;;4.33;60.52;102506.25;5043363;28;20183;-64
2023/01/21 01:00:47;;;;;;;34.22;18.48;;;;;;;4.32;60.20;102512.53;5043412;28;20049;-64
2023/01/21 01:03:14;;;;;;;29.67;16.88;;;;;;;4.30;60.63;102517.16;5048279;28;20187;-64
2023/01/21 01:05:42;;;;;;;30.38;17.83;;;;;;;4.28;60.18;102519.97;5044034;28;20508;-64
2023/01/21 01:08:11;;;;;;;27.90;17.23;;;;;;;4.28;61.04;102527.13;5052272;28;20128;-64
2023/01/21 01:10:39;;;;;;;27.20;17.50;;;;;;;4.26;60.80;102537.91;5044139;28;20045;-64
2023/01/21 01:13:06;;;;;;;28.63;17.80;;;;;;;4.21;60.72;102540.97;5044125;28;20405;-64
2023/01/21 01:15:34;;;;;;;28.48;17.73;;;;;;;4.20;60.44;102541.94;5044291;28;20176;-64
2023/01/21 01:18:02;;;;;;;26.92;17.80;;;;;;;4.18;61.21;102557.22;5046021;28;20053;-64
2023/01/21 01:20:30;;;;;;;29.13;17.95;;;;;;;4.15;60.82;102560.16;5044637;28;20128;-64
2023/01/21 01:22:57;;;;;;;27.85;18.05;;;;;;;4.15;60.64;102560.16;5047281;28;20046;-64
2023/01/21 01:25:26;;;;;;;30.50;18.13;;;;;;;4.16;60.68;102568.97;5046520;28;20057;-64
2023/01/21 01:27:54;;;;;;;27.60;17.63;;;;;;;4.19;60.61;102571.38;5053193;28;20061;-64
2023/01/21 01:30:22;;;;;;;29.60;18.60;;;;;;;4.20;60.89;102578.38;5038660;28;20042;-64
2023/01/21 01:32:49;;;;;;;32.10;19.02;;;;;;;4.16;60.50;102583.13;5047629;28;20128;-64
2023/01/21 01:35:17;;;;;;;32.95;18.67;;;;;;;4.15;60.76;102585.91;5047886;28;20072;-64
2023/01/21 01:37:45;;;;;;;32.38;18.73;;;;;;;4.15;60.74;102596.56;5046349;28;20049;-64
2023/01/21 01:40:13;;;;;;;31.38;19.27;;;;;;;4.19;60.40;102600.63;5036942;28;20046;-64
2023/01/21 01:42:43;;;;;;;30.20;19.40;;;;;;;4.17;60.39;102610.56;5048022;28;20064;-64
2023/01/21 01:45:19;;;;;;;32.40;19.38;;;;;;;4.14;60.60;102613.50;5043729;28;20132;-64
2023/01/21 01:47:49;;;;;;;27.45;17.80;;;;;;;4.14;60.89;102611.69;5039169;28;20117;-64
2023/01/21 01:50:19;;;;;;;29.45;17.90;;;;;;;4.14;60.27;102621.47;5034057;28;20136;-64
2023/01/21 01:52:47;;;;;;;31.95;19.42;;;;;;;4.15;60.21;102618.69;5048274;28;20117;-64
2023/01/21 01:55:15;;;;;;;33.78;19.88;;;;;;;4.17;60.41;102619.41;5050408;28;20077;-64
2023/01/21 01:57:49;;;;;;;31.15;19.33;;;;;;;4.17;60.96;102613.22;5050762;28;20072;-64
2023/01/21 02:00:20;;;;;;;34.35;19.67;;;;;;;4.18;60.83;102630.88;5044929;28;20056;-64
2023/01/21 02:05:29;;;;;;;29.80;18.15;;;;;;;4.16;60.66;102625.69;5043486;28;20091;-63
2023/01/21 02:07:57;;;;;;;29.33;18.05;;;;;;;4.17;60.17;102635.34;5037676;28;20059;-64
2023/01/21 02:10:25;;;;;;;34.28;20.05;;;;;;;4.17;61.16;102631.84;5044696;28;20132;-64
2023/01/21 02:12:54;;;;;;;32.47;18.80;;;;;;;4.19;60.25;102629.91;5042605;28;20053;-64
2023/01/21 02:15:24;;;;;;;31.42;19.55;;;;;;;4.19;61.08;102638.72;5042511;28;20042;-64
2023/01/21 02:18:02;;;;;;;34.00;19.75;;;;;;;4.18;60.81;102641.53;5046642;28;20396;-63
2023/01/21 02:21:02;;;;;;;32.97;20.52;;;;;;;4.19;60.64;102637.88;5042699;28;20069;-64
2023/01/21 02:23:50;;;;;;;37.22;21.27;;;;;;;4.18;60.11;102647.69;5049935;28;20553;-64
2023/01/21 02:27:00;;;;;;;33.42;19.55;;;;;;;4.16;61.03;102648.81;5046626;28;20234;-64
2023/01/21 02:29:54;;;;;;;35.58;20.90;;;;;;;4.16;60.73;102662.09;5027160;28;21148;-65
2023/01/21 02:32:42;;;;;;;32.92;20.60;;;;;;;4.14;60.29;102664.91;5044694;28;20521;-64
2023/01/21 02:35:18;;;;;;;34.38;20.77;;;;;;;4.16;60.44;102665.59;5056639;28;20128;-64
2023/01/21 02:37:53;;;;;;;31.33;19.23;;;;;;;4.11;60.86;102670.50;5041116;28;20192;-64
2023/01/21 02:40:29;;;;;;;32.78;20.55;;;;;;;4.11;60.98;102681.13;5041350;28;20041;-64
2023/01/21 02:43:06;;;;;;;35.63;21.67;;;;;;;4.00;60.72;102661.78;5040035;28;20462;-64
2023/01/21 02:45:41;;;;;;;34.80;20.92;;;;;;;4.08;60.55;102670.75;5049888;28;20053;-64
2023/01/21 02:48:16;;;;;;;33.63;20.38;;;;;;;4.09;60.16;102674.25;5043127;28;20076;-64
2023/01/21 02:50:48;;;;;;;35.40;20.42;;;;;;;4.09;60.99;102677.75;5050139;28;20060;-64
2023/01/21 02:53:24;;;;;;;35.20;22.08;;;;;;;4.12;60.49;102679.31;5030929;28;20053;-64
2023/01/21 02:55:53;;;;;;;39.83;20.85;;;;;;;4.10;60.41;102682.09;5049617;28;20041;-64
2023/01/21 02:58:28;;;;;;;35.30;21.08;;;;;;;4.09;60.67;102690.22;5040130;28;20083;-64
2023/01/21 03:01:11;;;;;;;36.40;22.42;;;;;;;4.07;60.36;102693.03;5035499;28;20042;-64
2023/01/21 03:04:03;;;;;;;38.08;20.55;;;;;;;4.05;61.05;102696.78;5041293;28;20049;-64
2023/01/21 03:06:59;;;;;;;33.75;20.52;;;;;;;4.06;60.28;102691.34;5046122;28;20041;-64
2023/01/21 03:09:29;;;;;;;37.08;22.83;;;;;;;4.07;60.26;102692.19;5040353;28;20077;-64
2023/01/21 03:12:07;;;;;;;35.03;21.55;;;;;;;4.06;59.96;102694.00;5040582;28;20044;-63
2023/01/21 03:17:34;;;;;;;38.95;22.10;;;;;;;4.01;60.14;102700.69;5043943;28;20056;-64
2023/01/21 03:20:08;;;;;;;40.80;23.23;;;;;;;3.98;60.42;102707.13;5042025;28;20045;-64
2023/01/21 03:22:39;;;;;;;33.88;21.30;;;;;;;3.98;60.52;102714.25;5047389;28;20049;-63
2023/01/21 03:25:08;;;;;;;39.05;23.35;;;;;;;3.98;60.34;102708.94;5044735;28;20053;-64
2023/01/21 03:27:40;;;;;;;41.15;23.45;;;;;;;3.98;61.03;102715.09;5044537;28;20117;-64
2023/01/21 03:30:12;;;;;;;40.67;23.70;;;;;;;3.97;60.24;102718.75;5039541;28;20049;-64
2023/01/21 03:32:43;;;;;;;39.83;22.63;;;;;;;3.97;60.10;102717.91;5048093;28;20182;-64
2023/01/21 03:35:16;;;;;;;38.80;22.85;;;;;;;3.95;60.18;102710.06;5047511;28;20144;-63
2023/01/21 03:37:48;;;;;;;37.72;22.33;;;;;;;3.95;60.74;102707.38;5049790;28;20088;-63
2023/01/21 03:40:21;;;;;;;37.60;22.25;;;;;;;3.95;60.24;102718.03;5033430;28;20109;-63
2023/01/21 03:42:51;;;;;;;43.33;23.05;;;;;;;3.95;60.58;102725.16;5045168;28;20045;-63
2023/01/21 03:45:29;;;;;;;36.17;22.75;;;;;;;3.96;60.30;102726.84;5046641;28;20049;-64
2023/01/21 03:48:01;;;;;;;38.85;23.00;;;;;;;3.96;61.08;102729.50;5034655;28;20381;-64
2023/01/21 03:50:36;;;;;;;37.53;23.33;;;;;;;3.95;60.26;102727.81;5041841;28;20109;-63
2023/01/21 03:53:06;;;;;;;39.10;23.70;;;;;;;3.93;59.97;102727.97;5046715;28;20129;-63
2023/01/21 03:55:36;;;;;;;38.42;22.80;;;;;;;3.90;60.52;102734.38;5050881;28;20132;-64
2023/01/21 03:58:03;;;;;;;42.10;24.23;;;;;;;3.91;60.20;102741.38;5048845;28;20121;-63
2023/01/21 04:00:31;;;;;;;40.00;24.33;;;;;;;3.89;60.80;102737.19;5037911;28;20418;-63
2023/01/21 04:02:59;;;;;;;38.97;23.60;;;;;;;3.89;61.09;102740.69;5045762;28;20081;-63
2023/01/21 04:05:26;;;;;;;38.78;22.88;;;;;;;3.88;60.91;102743.47;5055061;28;20045;-63
2023/01/21 04:07:54;;;;;;;40.45;23.58;;;;;;;3.85;61.14;102749.91;5044755;28;20049;-64
2023/01/21 04:10:23;;;;;;;39.70;23.42;;;;;;;3.86;60.99;102740.94;5043895;28;20045;-63
2023/01/21 04:12:51;;;;;;;41.17;23.10;;;;;;;3.87;60.81;102749.75;5044118;28;20056;-63
2023/01/21 04:15:19;;;;;;;41.20;23.10;;;;;;;3.85;61.02;102744.56;5049012;28;20076;-63
2023/01/21 04:17:46;;;;;;;43.10;24.38;;;;;;;3.84;60.92;102742.03;5051924;28;20131;-64
2023/01/21 04:20:14;;;;;;;40.90;23.33;;;;;;;3.84;60.44;102753.53;5040129;28;20053;-64
2023/01/21 04:22:42;;;;;;;39.40;23.88;;;;;;;3.83;60.24;102765.13;5049043;28;20037;-63
2023/01/21 04:25:10;;;;;;;43.67;23.75;;;;;;;3.80;60.95;102759.25;5039637;28;20053;-63
2023/01/21 04:27:39;;;;;;;41.85;24.25;;;;;;;3.80;60.95;102765.41;5044387;28;20077;-63
2023/01/21 04:30:08;;;;;;;43.60;23.42;;;;;;;3.77;60.99;102773.63;5041468;28;20120;-64
2023/01/21 04:32:36;;;;;;;44.53;24.60;;;;;;;3.77;60.95;102775.47;5044567;28;20072;-63
2023/01/21 04:35:04;;;;;;;38.40;23.40;;;;;;;3.75;60.32;102785.38;5043470;28;20045;-63
2023/01/21 04:37:32;;;;;;;43.92;24.15;;;;;;;3.74;60.13;102773.06;5047587;28;20041;-64
2023/01/21 04:39:59;;;;;;;39.53;23.17;;;;;;;3.73;60.28;102772.22;5043131;28;20132;-64
2023/01/21 04:42:27;;;;;;;40.83;23.60;;;;;;;3.74;60.68;102770.41;5050197;28;20068;-63
2023/01/21 04:44:56;;;;;;;44.97;25.77;;;;;;;3.76;60.74;102776.44;5041294;28;20045;-63
2023/01/21 04:47:24;;;;;;;42.95;24.02;;;;;;;3.76;60.76;102779.09;5050674;28;20171;-63
2023/01/21 04:49:52;;;;;;;42.47;22.95;;;;;;;3.74;60.47;102778.38;5043740;28;20152;-63
2023/01/21 04:52:20;;;;;;;40.30;24.10;;;;;;;3.76;60.92;102779.94;5041305;28;20041;-63
2023/01/21 04:54:47;;;;;;;42.75;22.92;;;;;;;3.75;60.43;102786.22;5053151;28;20471;-63
2023/01/21 04:57:15;;;;;;;40.67;24.08;;;;;;;3.72;60.91;102781.16;5044127;28;20495;-63
2023/01/21 04:59:43;;;;;;;45.58;25.80;;;;;;;3.70;60.64;102782.25;5041037;28;20465;-63
2023/01/21 05:02:13;;;;;;;37.20;23.20;;;;;;;3.68;60.41;102789.53;5040088;28;20153;-63
2023/01/21 05:04:41;;;;;;;41.08;24.00;;;;;;;3.68;60.19;102793.03;5043131;28;20045;-62
2023/01/21 05:07:10;;;;;;;44.10;24.25;;;;;;;3.68;60.34;102787.72;5051684;28;20560;-63
2023/01/21 05:09:38;;;;;;;46.85;26.55;;;;;;;3.70;60.46;102792.91;5046114;28;20144;-63
2023/01/21 05:12:06;;;;;;;36.88;21.85;;;;;;;3.70;60.15;102800.88;5054881;28;20049;-62
2023/01/21 05:14:34;;;;;;;39.60;22.75;;;;;;;3.70;60.75;102806.19;5042663;28;20543;-62
2023/01/21 05:17:02;;;;;;;44.53;24.80;;;;;;;3.70;60.79;102801.72;5052679;28;20059;-63
2023/01/21 05:19:31;;;;;;;42.95;23.95;;;;;;;3.69;60.23;102807.16;5044217;28;20152;-63
2023/01/21 05:21:59;;;;;;;40.15;23.80;;;;;;;3.65;60.08;102806.59;5054500;28;20096;-63
2023/01/21 05:24:26;;;;;;;40.45;23.45;;;;;;;3.69;61.13;102810.66;5046605;28;20053;-62
2023/01/21 05:26:54;;;;;;;40.97;24.20;;;;;;;3.68;60.73;102805.47;5047483;28;20064;-63
2023/01/21 05:29:22;;;;;;;41.25;23.05;;;;;;;3.66;60.27;102810.94;5040323;28;20228;-63
2023/01/21 05:31:50;;;;;;;43.25;22.75;;;;;;;3.67;60.78;102815.28;5037241;28;20053;-63
2023/01/21 05:34:18;;;;;;;37.42;22.70;;;;;;;3.63;60.01;102821.81;5047647;28;20045;-63
2023/01/21 05:36:47;;;;;;;41.55;23.27;;;;;;;3.67;60.56;102822.41;5047997;28;20041;-63
2023/01/21 05:39:15;;;;;;;42.22;23.25;;;;;;;3.67;60.03;102825.91;5040269;28;20140;-64
2023/01/21 05:41:42;;;;;;;40.50;24.42;;;;;;;3.66;60.57;102836.66;5044751;28;20069;-64
2023/01/21 05:44:10;;;;;;;41.55;24.48;;;;;;;3.63;60.64;102840.44;5051779;28;20382;-64
2023/01/21 05:46:38;;;;;;;41.08;23.33;;;;;;;3.63;61.05;102843.09;5044599;28;20470;-64
2023/01/21 05:49:06;;;;;;;41.33;23.83;;;;;;;3.65;60.90;102848.28;5044276;28;20080;-64
2023/01/21 05:51:33;;;;;;;39.53;23.83;;;;;;;3.63;60.28;102845.75;5045822;28;20110;-64
2023/01/21 05:54:03;;;;;;;40.78;23.20;;;;;;;3.64;60.58;102850.09;5045671;28;20041;-64
2023/01/21 05:56:30;;;;;;;38.17;24.27;;;;;;;3.63;60.92;102839.59;5044149;28;20132;-64
2023/01/21 05:58:58;;;;;;;43.33;23.48;;;;;;;3.63;60.25;102851.06;5041657;28;20105;-63
2023/01/21 06:01:26;;;;;;;40.15;22.80;;;;;;;3.60;60.59;102849.50;5036620;28;20056;-63
2023/01/21 06:03:54;;;;;;;38.30;22.02;;;;;;;3.65;60.82;102850.94;4691849;28;10000135;-64
2023/01/21 06:06:21;;;;;;;40.20;22.95;;;;;;;3.76;60.57;102851.72;5035240;28;20045;-63
2023/01/21 06:08:49;;;;;;;37.75;22.67;;;;;;;3.86;60.05;102855.31;5040029;28;20072;-63
2023/01/21 06:11:18;;;;;;;38.63;21.95;;;;;;;4.03;59.64;102856.53;5041308;28;20521;-63
2023/01/21 06:13:46;;;;;;;39.88;22.40;;;;;;;4.15;58.36;102852.84;5037288;28;20053;-63
2023/01/21 06:16:14;;;;;;;39.85;22.70;;;;;;;4.26;58.11;102854.59;5041981;28;20057;-63
2023/01/21 06:18:41;;;;;;;38.63;22.38;;;;;;;4.41;57.77;102863.94;5039656;28;20049;-63
2023/01/21 06:21:09;;;;;;;38.92;22.95;;;;;;;4.54;57.77;102861.06;5037915;28;20506;-64
2023/01/21 06:23:37;;;;;;;39.08;23.13;;;;;;;4.68;57.53;102867.84;5034595;28;20129;-64
2023/01/21 06:26:05;;;;;;;39.58;22.58;;;;;;;4.80;56.56;102869.44;5038169;28;20056;-63
2023/01/21 06:28:34;;;;;;;41.63;24.15;;;;;;;4.92;56.52;102875.50;5037666;28;20144;-63
2023/01/21 06:31:02;;;;;;;38.60;22.23;;;;;;;5.01;55.67;102872.88;5045038;28;20143;-64
2023/01/21 06:33:30;;;;;;;37.85;22.38;;;;;;;5.13;55.61;102876.28;5039778;28;20045;-63
2023/01/21 06:35:58;;;;;;;39.70;22.70;;;;;;;5.16;55.21;102884.00;5041692;28;20053;-65
2023/01/21 06:38:26;;;;;;;36.45;20.90;;;;;;;5.19;55.17;102887.22;5039334;28;20110;-65
2023/01/21 06:40:53;;;;;;;35.00;22.15;;;;;;;5.26;55.66;102889.31;5038787;28;20060;-65
2023/01/21 06:43:21;;;;;;;38.75;21.77;;;;;;;5.26;55.02;102886.66;5035473;28;20156;-64
2023/01/21 06:45:50;;;;;;;34.70;20.85;;;;;;;5.28;54.76;102890.03;5037107;28;20052;-65
2023/01/21 06:48:18;;;;;;;37.42;21.95;;;;;;;5.34;55.30;102892.13;5033929;28;20136;-64
2023/01/21 06:50:46;;;;;;;38.10;21.23;;;;;;;5.31;54.76;102895.94;5028836;28;20053;-64
2023/01/21 06:53:14;;;;;;;36.08;21.08;;;;;;;5.19;55.23;102899.72;5039819;28;20177;-64
2023/01/21 06:55:42;;;;;;;32.45;20.65;;;;;;;5.06;55.67;102905.28;5049363;28;20049;-64
2023/01/21 06:58:09;;;;;;;36.08;20.30;;;;;;;4.94;56.29;102913.50;5034069;28;20105;-65
2023/01/21 07:00:37;;;;;;;39.45;22.63;;;;;;;4.79;56.65;102923.69;5037683;28;20045;-64
2023/01/21 07:03:06;;;;;;;37.30;22.17;;;;;;;4.63;57.25;102929.50;5039339;28;20575;-64
2023/01/21 07:05:34;;;;;;;36.90;21.58;;;;;;;4.51;56.94;102917.22;5044783;28;20049;-64
2023/01/21 07:08:02;;;;;;;37.28;21.67;;;;;;;4.44;57.54;102919.56;5040037;28;20045;-64
2023/01/21 07:10:29;;;;;;;42.60;23.50;;;;;;;4.32;57.44;102939.25;5048739;28;20057;-64
2023/01/21 07:12:57;;;;;;;36.38;21.77;;;;;;;4.24;57.85;102933.72;5043413;28;20148;-64
2023/01/21 07:15:29;;;;;;;43.58;24.65;;;;;;;4.18;58.61;102940.41;5036255;28;20133;-63
2023/01/21 07:17:57;;;;;;;36.65;22.33;;;;;;;4.15;58.19;102947.81;5038522;28;20064;-64
2023/01/21 07:20:26;;;;;;;36.88;21.23;;;;;;;4.10;58.48;102944.69;5038510;28;20057;-64
2023/01/21 07:22:54;;;;;;;38.30;22.48;;;;;;;4.08;58.43;102951.94;5044110;28;20061;-65
2023/01/21 07:25:22;;;;;;;39.72;22.92;;;;;;;4.02;58.38;102952.44;5026840;28;20069;-66
2023/01/21 07:27:49;;;;;;;40.92;23.25;;;;;;;3.98;58.35;102948.34;5038783;28;20437;-65
2023/01/21 07:30:18;;;;;;;42.50;23.63;;;;;;;3.93;59.33;102956.72;5046287;28;20107;-68
2023/01/21 07:32:47;;;;;;;40.00;23.35;;;;;;;3.90;59.03;102955.16;5031917;28;20116;-65
2023/01/21 07:35:15;;;;;;;38.13;22.42;;;;;;;3.87;59.13;102962.53;5036608;28;20105;-66
2023/01/21 07:37:44;;;;;;;39.70;22.35;;;;;;;3.84;59.76;102973.44;5040235;28;20045;-66
2023/01/21 07:40:13;;;;;;;45.88;24.17;;;;;;;3.82;59.30;102972.72;5042436;28;20414;-67
2023/01/21 07:42:41;;;;;;;36.30;21.92;;;;;;;3.77;59.00;102975.75;5039880;28;20077;-64
2023/01/21 07:45:09;;;;;;;38.58;23.42;;;;;;;3.74;59.24;102976.00;5037068;28;20200;-65
2023/01/21 07:47:37;;;;;;;38.22;21.10;;;;;;;3.81;59.74;102985.16;5035668;28;20077;-65
2023/01/21 07:50:07;;;;;;;40.50;22.08;;;;;;;3.91;58.80;102988.75;5032619;28;20053;-65
2023/01/21 07:52:35;;;;;;;38.40;22.73;;;;;;;4.11;58.94;103000.44;5041623;28;20388;-66
2023/01/21 07:55:05;;;;;;;39.03;23.45;;;;;;;4.24;57.77;102995.78;5042794;28;20084;-65
2023/01/21 07:57:35;;;;;;;39.03;22.13;;;;;;;4.40;58.05;103007.81;5038736;28;20046;-66
2023/01/21 08:00:04;;;;;;;40.03;22.33;;;;;;;4.55;57.06;103007.38;5032044;28;20077;-65
2023/01/21 08:02:31;;;;;;;43.83;23.30;;;;;;;4.70;56.58;103007.03;5041339;28;20140;-69
2023/01/21 08:04:59;;;;;;;41.35;23.65;;;;;;;4.83;56.63;103013.84;5037408;28;20107;-64
2023/01/21 08:07:27;;;;;;;38.28;21.63;;;;;;;4.97;55.87;103012.69;5038580;28;20049;-64
2023/01/21 08:09:55;;;;;;;37.28;21.83;;;;;;;5.08;55.95;103025.91;5037575;28;20045;-64
2023/01/21 08:12:24;;;;;;;42.20;24.05;;;;;;;4.79;55.83;103024.91;5054457;28;20691;-63
2023/01/21 08:14:54;;;;;;;42.20;24.60;;;;;;;4.81;56.02;103028.28;5035509;28;20373;-66
2023/01/21 08:17:21;;;;;;;48.58;24.33;;;;;;;4.95;55.73;103035.94;5034385;28;20140;-65
2023/01/21 08:19:49;;;;;;;40.45;22.35;;;;;;;4.95;55.37;103040.44;5038519;28;20048;-67
2023/01/21 08:22:17;;;;;;;38.50;22.27;;;;;;;4.86;56.08;103042.06;5046065;28;20067;-65
2023/01/21 08:24:44;;;;;;;39.58;22.42;;;;;;;4.74;56.11;103045.75;5043659;28;20072;-64
2023/01/21 08:27:12;;;;;;;41.30;24.27;;;;;;;4.57;56.37;103048.03;5037973;28;20045;-62
2023/01/21 08:29:41;;;;;;;39.90;23.25;;;;;;;4.45;57.10;103057.03;5043298;28;20056;-64
2023/01/21 08:32:09;;;;;;;40.08;22.90;;;;;;;4.37;57.32;103064.81;5045355;28;20113;-63
2023/01/21 08:34:37;;;;;;;44.20;23.25;;;;;;;4.31;58.14;103064.47;5042166;28;20068;-63
2023/01/21 08:37:05;;;;;;;40.50;23.25;;;;;;;4.24;57.66;103072.97;5041802;28;20119;-64
2023/01/21 08:39:33;;;;;;;45.70;24.73;;;;;;;4.22;58.23;103080.22;5036300;28;20125;-63
2023/01/21 08:42:01;;;;;;;43.10;24.15;;;;;;;4.17;58.97;103079.75;5038163;28;20049;-63
2023/01/21 08:44:28;;;;;;;39.38;22.48;;;;;;;4.10;58.81;103083.88;5042885;28;20044;-63
2023/01/21 08:46:57;;;;;;;43.75;24.20;;;;;;;4.03;58.84;103085.34;5040120;28;20057;-65
2023/01/21 08:49:25;;;;;;;44.55;24.98;;;;;;;3.98;58.90;103097.34;5040444;28;20105;-64
2023/01/21 08:51:53;;;;;;;43.25;23.33;;;;;;;3.96;59.53;103099.28;5045395;28;20071;-64
2023/01/21 08:54:21;;;;;;;43.78;24.15;;;;;;;3.90;59.44;103104.13;5056460;28;20421;-64
2023/01/21 08:56:48;;;;;;;43.70;23.63;;;;;;;3.89;59.97;103110.41;5043913;28;20065;-64
2023/01/21 08:59:16;;;;;;;43.67;24.27;;;;;;;3.83;59.17;103110.91;5060495;28;20136;-64
2023/01/21 09:01:44;;;;;;;41.00;24.60;;;;;;;3.69;59.75;103095.19;5046833;28;20125;-64
2023/01/21 09:04:13;;;;;;;44.05;25.33;;;;;;;3.77;60.02;103105.22;5044128;28;20033;-64
2023/01/21 09:06:41;;;;;;;45.58;25.08;;;;;;;3.78;60.24;103110.41;5041241;28;20135;-64
2023/01/21 09:09:10;;;;;;;44.53;23.77;;;;;;;3.76;60.16;103112.34;5043023;28;20220;-64
2023/01/21 09:11:38;;;;;;;44.97;25.63;;;;;;;3.72;60.39;103110.91;5039238;28;20054;-65
2023/01/21 09:14:06;;;;;;;45.33;25.50;;;;;;;3.72;59.64;103112.72;5040228;28;20136;-65
2023/01/21 09:16:35;;;;;;;44.92;25.02;;;;;;;3.74;60.37;103113.44;5037042;28;20050;-64
2023/01/21 09:19:03;;;;;;;47.60;26.27;;;;;;;3.86;60.25;103123.09;5037747;28;20050;-64
2023/01/21 09:21:34;;;;;;;45.65;25.83;;;;;;;3.90;59.56;103124.56;5041014;28;20050;-64
2023/01/21 09:24:02;;;;;;;44.97;24.90;;;;;;;4.03;59.90;103119.09;5045821;28;20045;-64
2023/01/21 09:26:30;;;;;;;45.03;25.88;;;;;;;4.22;58.64;103128.13;5035600;28;20112;-64
2023/01/21 09:28:59;;;;;;;48.78;24.67;;;;;;;4.33;58.82;103129.06;5040983;28;20056;-63
2023/01/21 09:31:29;;;;;;;46.28;25.35;;;;;;;4.45;57.87;103128.06;5042184;28;20140;-65
2023/01/21 09:33:59;;;;;;;42.22;23.90;;;;;;;4.56;58.27;103126.22;5061131;28;20056;-64
2023/01/21 09:36:29;;;;;;;48.13;27.23;;;;;;;4.66;57.74;103131.63;5047504;28;20084;-63
2023/01/21 09:38:59;;;;;;;43.00;24.27;;;;;;;4.77;56.77;103123.59;5041599;28;20064;-63
2023/01/21 09:41:30;;;;;;;46.60;25.27;;;;;;;4.76;57.38;103124.56;5049010;28;20502;-63
2023/01/21 09:44:12;;;;;;;45.25;25.40;;;;;;;4.74;57.08;103139.00;5035635;28;20153;-63
2023/01/21 09:46:46;;;;;;;43.20;24.13;;;;;;;4.66;57.48;103144.94;5041341;28;20050;-64
2023/01/21 09:49:19;;;;;;;47.15;25.55;;;;;;;4.57;58.28;103151.03;5033235;28;20069;-63
2023/01/21 09:51:56;;;;;;;46.35;25.13;;;;;;;4.47;58.06;103163.41;5027858;28;20401;-64
2023/01/21 09:54:28;;;;;;;51.10;25.63;;;;;;;4.36;58.74;103156.28;5041766;28;20073;-64
2023/01/21 09:57:16;;;;;;;45.03;25.02;;;;;;;4.35;58.83;103164.41;5039286;28;20054;-65
2023/01/21 10:00:00;;;;;;;42.58;25.70;;;;;;;4.25;59.53;103173.13;5044081;28;20120;-63
2023/01/21 10:02:48;;;;;;;51.20;25.98;;;;;;;4.15;59.14;103160.69;5044769;28;20041;-63
2023/01/21 10:06:00;;;;;;;40.53;23.42;;;;;;;4.16;59.95;103192.50;5039245;28;20045;-63
2023/01/21 10:08:37;;;;;;;45.45;25.38;;;;;;;4.04;59.46;103188.16;4958446;28;20074;-63
2023/01/21 10:11:21;;;;;;;46.58;24.67;;;;;;;3.91;60.29;103192.75;4952933;28;20157;-63
2023/01/21 10:14:04;;;;;;;49.35;24.77;;;;;;;3.79;59.95;103191.91;4956602;29;20138;-65
2023/01/21 10:16:42;;;;;;;47.80;24.70;;;;;;;3.75;60.63;103185.13;4964886;28;20038;-64
2023/01/21 10:19:14;;;;;;;47.20;25.85;;;;;;;3.76;61.22;103199.25;4959517;28;20051;-63
2023/01/21 10:21:50;;;;;;;54.00;26.75;;;;;;;3.68;60.55;103186.56;4958335;28;20071;-68
2023/01/21 10:24:24;;;;;;;51.93;27.07;;;;;;;3.78;61.01;103206.16;4949880;29;20055;-63
2023/01/21 10:26:54;;;;;;;52.08;26.30;;;;;;;3.77;61.24;103200.97;4958192;28;20074;-62
2023/01/21 10:29:25;;;;;;;49.30;25.88;;;;;;;3.70;61.20;103191.75;4955727;28;20058;-63
2023/01/21 10:31:58;;;;;;;49.65;24.75;;;;;;;3.70;61.57;103205.06;4952128;28;20055;-63
2023/01/21 10:34:30;;;;;;;50.55;26.05;;;;;;;3.64;61.55;103202.88;4958626;29;20066;-63
2023/01/21 10:37:08;;;;;;;52.20;26.58;;;;;;;3.81;61.21;103207.72;4956541;29;20043;-62
2023/01/21 10:39:45;;;;;;;52.35;24.77;;;;;;;4.01;60.15;103200.84;4953508;29;20122;-62
2023/01/21 10:42:51;;;;;;;47.88;25.77;;;;;;;4.25;59.60;103207.72;4951214;28;20236;-63
2023/01/21 10:45:40;;;;;;;51.70;24.75;;;;;;;4.48;58.82;103192.56;4991631;28;20045;-63
2023/01/21 10:48:15;;;;;;;52.83;25.80;;;;;;;4.61;58.34;103176.44;5043112;28;20135;-63
2023/01/21 10:50:50;;;;;;;46.80;23.42;;;;;;;4.94;58.22;103190.63;5037843;28;20144;-62
2023/01/21 10:53:26;;;;;;;46.50;24.40;;;;;;;5.09;57.55;103181.34;5044630;28;20050;-61
2023/01/21 10:56:05;;;;;;;50.85;25.33;;;;;;;5.05;57.79;103186.09;5034518;28;20098;-61
2023/01/21 10:58:37;;;;;;;52.00;25.50;;;;;;;4.97;57.54;103188.53;5039489;28;20042;-60
2023/01/21 11:01:12;;;;;;;45.28;24.63;;;;;;;4.85;58.24;103177.09;5039002;28;20068;-60
2023/01/21 11:03:43;;;;;;;46.25;23.38;;;;;;;4.73;58.95;103177.25;5040864;28;20415;-61
2023/01/21 11:06:13;;;;;;;50.13;26.58;;;;;;;4.64;59.38;103172.69;5046895;28;20105;-60
2023/01/21 11:08:44;;;;;;;50.10;24.13;;;;;;;4.54;59.28;103176.09;5043428;28;20106;-61
2023/01/21 11:11:13;;;;;;;54.35;27.33;;;;;;;4.49;59.75;103183.63;5044421;28;20329;-61
2023/01/21 11:13:41;;;;;;;46.83;24.38;;;;;;;4.43;59.92;103177.94;5043206;28;20116;-61
2023/01/21 11:16:11;;;;;;;50.05;26.23;;;;;;;4.39;59.70;103185.31;5044007;28;20038;-60
2023/01/21 11:18:41;;;;;;;50.72;25.38;;;;;;;4.35;59.68;103183.88;5034355;28;20080;-61
2023/01/21 11:21:17;;;;;;;52.38;24.45;;;;;;;4.35;60.22;103177.72;5048920;28;20053;-60
2023/01/21 11:23:53;;;;;;;49.13;25.90;;;;;;;4.29;60.17;103184.38;5040685;28;20060;-61
2023/01/21 11:26:24;;;;;;;48.93;23.53;;;;;;;4.29;60.03;103183.53;5036685;28;20041;-62
2023/01/21 11:29:11;;;;;;;46.78;25.08;;;;;;;4.26;60.85;103181.97;5044716;28;20068;-64
2023/01/21 11:31:43;;;;;;;49.08;24.60;;;;;;;4.25;60.13;103178.47;5048458;28;20049;-62
2023/01/21 11:34:14;;;;;;;49.78;26.27;;;;;;;4.24;60.38;103175.91;5039504;28;20052;-63
2023/01/21 11:36:57;;;;;;;50.90;26.35;;;;;;;4.23;61.23;103182.22;5042501;28;20101;-62
2023/01/21 11:39:26;;;;;;;60.42;28.13;;;;;;;4.18;60.77;103171.09;5047914;28;20479;-63